sensor_id;sensor_type;location;lat;lon;timestamp;temperature;humidity
11087;DHT22;5597;47.588;9.642;2023-07-02T00:01:12;17.60;99.90
11087;DHT22;5597;47.588;9.642;2023-07-02T00:03:38;17.70;99.90
11087;DHT22;5597;47.588;9.642;2023-07-02T00:06:04;17.70;99.90
11087;DHT22;5597;47.588;9.642;2023-07-02T00:08:30;17.70;99.90
11087;DHT22;5597;47.588;9.642;2023-07-02T00:10:55;17.60;99.90
11087;DHT22;5597;47.588;9.642;2023-07-02T00:13:21;17.60;99.90
11087;DHT22;5597;47.588;9.642;2023-07-02T00:15:47;17.60;99.90
11087;DHT22;5597;47.588;9.642;2023-07-02T00:18:12;17.60;99.90
11087;DHT22;5597;47.588;9.642;2023-07-02T00:20:42;17.60;99.90
11087;DHT22;5597;47.588;9.642;2023-07-02T00:23:07;17.50;99.90
11087;DHT22;5597;47.588;9.642;2023-07-02T00:25:38;17.50;99.90
11087;DHT22;5597;47.588;9.642;2023-07-02T00:28:04;17.50;99.90
11087;DHT22;5597;47.588;9.642;2023-07-02T00:30:29;17.40;99.90
11087;DHT22;5597;47.588;9.642;2023-07-02T00:32:55;17.40;99.90
11087;DHT22;5597;47.588;9.642;2023-07-02T00:35:21;17.40;99.90
11087;DHT22;5597;47.588;9.642;2023-07-02T00:37:46;17.30;99.90
11087;DHT22;5597;47.588;9.642;2023-07-02T00:40:13;17.30;99.90
11087;DHT22;5597;47.588;9.642;2023-07-02T00:42:38;17.30;99.90
11087;DHT22;5597;47.588;9.642;2023-07-02T00:45:05;17.30;99.90
11087;DHT22;5597;47.588;9.642;2023-07-02T00:47:33;17.30;99.90
11087;DHT22;5597;47.588;9.642;2023-07-02T00:50:00;17.20;99.90
11087;DHT22;5597;47.588;9.642;2023-07-02T00:52:28;17.20;99.90
11087;DHT22;5597;47.588;9.642;2023-07-02T00:54:53;17.20;99.90
11087;DHT22;5597;47.588;9.642;2023-07-02T00:57:19;17.20;99.90
11087;DHT22;5597;47.588;9.642;2023-07-02T00:59:45;17.10;99.90
11087;DHT22;5597;47.588;9.642;2023-07-02T01:02:11;17.10;99.90
11087;DHT22;5597;47.588;9.642;2023-07-02T01:04:38;17.10;99.90
11087;DHT22;5597;47.588;9.642;2023-07-02T01:07:04;17.10;99.90
11087;DHT22;5597;47.588;9.642;2023-07-02T01:09:34;17.10;99.90
11087;DHT22;5597;47.588;9.642;2023-07-02T01:12:02;17.10;99.90
11087;DHT22;5597;47.588;9.642;2023-07-02T01:14:33;17.00;99.90
11087;DHT22;5597;47.588;9.642;2023-07-02T01:17:01;17.00;99.90
11087;DHT22;5597;47.588;9.642;2023-07-02T01:19:46;17.00;99.90
11087;DHT22;5597;47.588;9.642;2023-07-02T01:22:19;17.00;99.90
11087;DHT22;5597;47.588;9.642;2023-07-02T01:24:45;17.00;99.90
11087;DHT22;5597;47.588;9.642;2023-07-02T01:27:15;17.00;99.90
11087;DHT22;5597;47.588;9.642;2023-07-02T01:29:41;17.00;99.90
11087;DHT22;5597;47.588;9.642;2023-07-02T01:32:07;17.00;99.90
11087;DHT22;5597;47.588;9.642;2023-07-02T01:34:34;16.90;99.90
11087;DHT22;5597;47.588;9.642;2023-07-02T01:37:00;16.90;99.90
11087;DHT22;5597;47.588;9.642;2023-07-02T01:39:26;16.90;99.90
11087;DHT22;5597;47.588;9.642;2023-07-02T01:41:54;16.80;99.90
11087;DHT22;5597;47.588;9.642;2023-07-02T01:44:21;16.80;99.90
11087;DHT22;5597;47.588;9.642;2023-07-02T01:46:47;16.70;99.90
11087;DHT22;5597;47.588;9.642;2023-07-02T01:49:18;16.70;99.90
11087;DHT22;5597;47.588;9.642;2023-07-02T01:51:53;16.70;99.90
11087;DHT22;5597;47.588;9.642;2023-07-02T01:54:20;16.70;99.90
11087;DHT22;5597;47.588;9.642;2023-07-02T01:56:46;16.70;99.90
11087;DHT22;5597;47.588;9.642;2023-07-02T01:59:12;16.70;99.90
11087;DHT22;5597;47.588;9.642;2023-07-02T02:01:39;16.70;99.90
11087;DHT22;5597;47.588;9.642;2023-07-02T02:04:08;16.60;99.90
11087;DHT22;5597;47.588;9.642;2023-07-02T02:06:34;16.70;99.90
11087;DHT22;5597;47.588;9.642;2023-07-02T02:09:00;16.70;99.90
11087;DHT22;5597;47.588;9.642;2023-07-02T02:11:26;16.60;99.90
11087;DHT22;5597;47.588;9.642;2023-07-02T02:13:51;16.60;99.90
11087;DHT22;5597;47.588;9.642;2023-07-02T02:16:17;16.70;99.90
11087;DHT22;5597;47.588;9.642;2023-07-02T02:18:43;16.70;99.90
11087;DHT22;5597;47.588;9.642;2023-07-02T02:21:08;16.70;99.90
11087;DHT22;5597;47.588;9.642;2023-07-02T02:23:34;16.70;99.90
11087;DHT22;5597;47.588;9.642;2023-07-02T02:26:00;16.80;99.90
11087;DHT22;5597;47.588;9.642;2023-07-02T02:28:26;16.80;99.90
11087;DHT22;5597;47.588;9.642;2023-07-02T02:30:51;16.80;99.90
11087;DHT22;5597;47.588;9.642;2023-07-02T02:33:17;16.80;99.90
11087;DHT22;5597;47.588;9.642;2023-07-02T02:35:42;16.90;99.90
11087;DHT22;5597;47.588;9.642;2023-07-02T02:38:08;16.90;99.90
11087;DHT22;5597;47.588;9.642;2023-07-02T02:40:34;16.90;99.90
11087;DHT22;5597;47.588;9.642;2023-07-02T02:43:00;16.90;99.90
11087;DHT22;5597;47.588;9.642;2023-07-02T02:45:25;17.00;99.90
11087;DHT22;5597;47.588;9.642;2023-07-02T02:47:51;17.00;99.90
11087;DHT22;5597;47.588;9.642;2023-07-02T02:50:17;17.00;99.90
11087;DHT22;5597;47.588;9.642;2023-07-02T02:52:42;17.00;99.90
11087;DHT22;5597;47.588;9.642;2023-07-02T02:55:09;17.00;99.90
11087;DHT22;5597;47.588;9.642;2023-07-02T02:57:36;17.00;99.90
11087;DHT22;5597;47.588;9.642;2023-07-02T03:00:02;17.00;99.90
11087;DHT22;5597;47.588;9.642;2023-07-02T03:02:28;17.00;99.90
11087;DHT22;5597;47.588;9.642;2023-07-02T03:04:53;17.00;99.90
11087;DHT22;5597;47.588;9.642;2023-07-02T03:07:19;17.00;99.90
11087;DHT22;5597;47.588;9.642;2023-07-02T03:09:45;17.00;99.90
11087;DHT22;5597;47.588;9.642;2023-07-02T03:12:10;16.90;99.90
11087;DHT22;5597;47.588;9.642;2023-07-02T03:14:36;16.90;99.90
11087;DHT22;5597;47.588;9.642;2023-07-02T03:17:02;16.80;99.90
11087;DHT22;5597;47.588;9.642;2023-07-02T03:19:28;16.90;99.90
11087;DHT22;5597;47.588;9.642;2023-07-02T03:21:54;16.90;99.90
11087;DHT22;5597;47.588;9.642;2023-07-02T03:24:19;16.90;99.90
11087;DHT22;5597;47.588;9.642;2023-07-02T03:26:45;16.90;99.90
11087;DHT22;5597;47.588;9.642;2023-07-02T03:29:11;16.80;99.90
11087;DHT22;5597;47.588;9.642;2023-07-02T03:31:37;16.80;99.90
11087;DHT22;5597;47.588;9.642;2023-07-02T03:34:05;16.90;99.90
11087;DHT22;5597;47.588;9.642;2023-07-02T03:36:31;16.90;99.90
11087;DHT22;5597;47.588;9.642;2023-07-02T03:38:56;16.90;99.90
11087;DHT22;5597;47.588;9.642;2023-07-02T03:41:22;16.90;99.90
11087;DHT22;5597;47.588;9.642;2023-07-02T03:43:48;16.90;99.90
11087;DHT22;5597;47.588;9.642;2023-07-02T03:46:14;16.90;99.90
11087;DHT22;5597;47.588;9.642;2023-07-02T03:48:39;16.90;99.90
11087;DHT22;5597;47.588;9.642;2023-07-02T03:51:06;16.90;99.90
11087;DHT22;5597;47.588;9.642;2023-07-02T03:53:31;17.00;99.90
11087;DHT22;5597;47.588;9.642;2023-07-02T03:55:57;17.00;99.90
11087;DHT22;5597;47.588;9.642;2023-07-02T03:58:23;17.00;99.90
11087;DHT22;5597;47.588;9.642;2023-07-02T04:00:48;17.00;99.90
11087;DHT22;5597;47.588;9.642;2023-07-02T04:03:17;17.00;99.90
11087;DHT22;5597;47.588;9.642;2023-07-02T04:05:43;17.00;99.90
11087;DHT22;5597;47.588;9.642;2023-07-02T04:08:09;17.00;99.90
11087;DHT22;5597;47.588;9.642;2023-07-02T04:10:35;17.00;99.90
11087;DHT22;5597;47.588;9.642;2023-07-02T04:13:01;17.00;99.90
11087;DHT22;5597;47.588;9.642;2023-07-02T04:15:27;17.00;99.90
11087;DHT22;5597;47.588;9.642;2023-07-02T04:17:52;17.00;99.90
11087;DHT22;5597;47.588;9.642;2023-07-02T04:20:19;17.00;99.90
11087;DHT22;5597;47.588;9.642;2023-07-02T04:22:45;17.00;99.90
11087;DHT22;5597;47.588;9.642;2023-07-02T04:25:15;16.90;99.90
11087;DHT22;5597;47.588;9.642;2023-07-02T04:27:44;16.90;99.90
11087;DHT22;5597;47.588;9.642;2023-07-02T04:30:12;16.90;99.90
11087;DHT22;5597;47.588;9.642;2023-07-02T04:32:39;16.90;99.90
11087;DHT22;5597;47.588;9.642;2023-07-02T04:35:06;16.90;99.90
11087;DHT22;5597;47.588;9.642;2023-07-02T04:37:32;16.90;99.90
11087;DHT22;5597;47.588;9.642;2023-07-02T04:39:58;16.90;99.90
11087;DHT22;5597;47.588;9.642;2023-07-02T04:42:23;16.90;99.90
11087;DHT22;5597;47.588;9.642;2023-07-02T04:44:57;16.90;99.90
11087;DHT22;5597;47.588;9.642;2023-07-02T04:47:28;16.90;99.90
11087;DHT22;5597;47.588;9.642;2023-07-02T04:49:54;16.90;99.90
11087;DHT22;5597;47.588;9.642;2023-07-02T04:52:20;16.90;99.90
11087;DHT22;5597;47.588;9.642;2023-07-02T04:54:45;16.80;99.90
11087;DHT22;5597;47.588;9.642;2023-07-02T04:57:11;16.90;99.90
11087;DHT22;5597;47.588;9.642;2023-07-02T04:59:38;16.80;99.90
11087;DHT22;5597;47.588;9.642;2023-07-02T05:02:04;16.80;99.90
11087;DHT22;5597;47.588;9.642;2023-07-02T05:04:29;16.80;99.90
11087;DHT22;5597;47.588;9.642;2023-07-02T05:06:55;16.80;99.90
11087;DHT22;5597;47.588;9.642;2023-07-02T05:09:21;16.80;99.90
11087;DHT22;5597;47.588;9.642;2023-07-02T05:11:46;16.90;99.90
11087;DHT22;5597;47.588;9.642;2023-07-02T05:14:12;16.90;99.90
11087;DHT22;5597;47.588;9.642;2023-07-02T05:16:37;16.90;99.90
11087;DHT22;5597;47.588;9.642;2023-07-02T05:19:03;16.90;99.90
11087;DHT22;5597;47.588;9.642;2023-07-02T05:21:28;16.90;99.90
11087;DHT22;5597;47.588;9.642;2023-07-02T05:23:54;16.90;99.90
11087;DHT22;5597;47.588;9.642;2023-07-02T05:26:19;16.90;99.90
11087;DHT22;5597;47.588;9.642;2023-07-02T05:28:45;16.90;99.90
11087;DHT22;5597;47.588;9.642;2023-07-02T05:31:10;16.90;99.90
11087;DHT22;5597;47.588;9.642;2023-07-02T05:33:36;16.90;99.90
11087;DHT22;5597;47.588;9.642;2023-07-02T05:36:02;16.90;99.90
11087;DHT22;5597;47.588;9.642;2023-07-02T05:38:27;16.90;99.90
11087;DHT22;5597;47.588;9.642;2023-07-02T05:40:53;16.90;99.90
11087;DHT22;5597;47.588;9.642;2023-07-02T05:43:18;16.90;99.90
11087;DHT22;5597;47.588;9.642;2023-07-02T05:45:44;16.90;99.90
11087;DHT22;5597;47.588;9.642;2023-07-02T05:48:10;16.90;99.90
11087;DHT22;5597;47.588;9.642;2023-07-02T05:50:35;16.90;99.90
11087;DHT22;5597;47.588;9.642;2023-07-02T05:53:01;16.90;99.90
11087;DHT22;5597;47.588;9.642;2023-07-02T05:55:26;16.90;99.90
11087;DHT22;5597;47.588;9.642;2023-07-02T05:57:52;17.00;99.90
11087;DHT22;5597;47.588;9.642;2023-07-02T06:00:17;17.00;99.90
11087;DHT22;5597;47.588;9.642;2023-07-02T06:02:46;17.00;99.90
11087;DHT22;5597;47.588;9.642;2023-07-02T06:05:12;17.00;99.90
11087;DHT22;5597;47.588;9.642;2023-07-02T06:07:37;17.00;99.90
11087;DHT22;5597;47.588;9.642;2023-07-02T06:10:03;17.00;99.90
11087;DHT22;5597;47.588;9.642;2023-07-02T06:12:29;17.00;99.90
11087;DHT22;5597;47.588;9.642;2023-07-02T06:14:54;17.00;99.90
11087;DHT22;5597;47.588;9.642;2023-07-02T06:17:20;17.10;99.90
11087;DHT22;5597;47.588;9.642;2023-07-02T06:19:47;17.10;99.90
11087;DHT22;5597;47.588;9.642;2023-07-02T06:22:12;17.10;99.90
11087;DHT22;5597;47.588;9.642;2023-07-02T06:24:38;17.20;99.90
11087;DHT22;5597;47.588;9.642;2023-07-02T06:27:03;17.20;99.90
11087;DHT22;5597;47.588;9.642;2023-07-02T06:29:31;17.20;99.90
11087;DHT22;5597;47.588;9.642;2023-07-02T06:31:57;17.20;99.90
11087;DHT22;5597;47.588;9.642;2023-07-02T06:34:23;17.20;99.90
11087;DHT22;5597;47.588;9.642;2023-07-02T06:36:48;17.20;99.90
11087;DHT22;5597;47.588;9.642;2023-07-02T06:39:14;17.20;99.90
11087;DHT22;5597;47.588;9.642;2023-07-02T06:41:39;17.20;99.90
11087;DHT22;5597;47.588;9.642;2023-07-02T06:44:05;17.20;99.90
11087;DHT22;5597;47.588;9.642;2023-07-02T06:46:31;17.30;99.90
11087;DHT22;5597;47.588;9.642;2023-07-02T06:48:56;17.30;99.90
11087;DHT22;5597;47.588;9.642;2023-07-02T06:51:22;17.40;99.90
11087;DHT22;5597;47.588;9.642;2023-07-02T06:53:48;17.40;99.90
11087;DHT22;5597;47.588;9.642;2023-07-02T06:56:13;17.40;99.90
11087;DHT22;5597;47.588;9.642;2023-07-02T06:58:43;17.50;99.90
11087;DHT22;5597;47.588;9.642;2023-07-02T07:01:09;17.60;99.90
11087;DHT22;5597;47.588;9.642;2023-07-02T07:03:37;17.60;99.90
11087;DHT22;5597;47.588;9.642;2023-07-02T07:06:03;17.70;99.90
11087;DHT22;5597;47.588;9.642;2023-07-02T07:08:29;17.80;99.90
11087;DHT22;5597;47.588;9.642;2023-07-02T07:10:56;17.90;99.90
11087;DHT22;5597;47.588;9.642;2023-07-02T07:13:22;18.00;99.90
11087;DHT22;5597;47.588;9.642;2023-07-02T07:15:48;18.00;99.90
11087;DHT22;5597;47.588;9.642;2023-07-02T07:18:13;18.00;99.90
11087;DHT22;5597;47.588;9.642;2023-07-02T07:20:41;18.10;99.90
11087;DHT22;5597;47.588;9.642;2023-07-02T07:23:07;18.10;99.90
11087;DHT22;5597;47.588;9.642;2023-07-02T07:25:32;18.10;99.90
11087;DHT22;5597;47.588;9.642;2023-07-02T07:27:59;18.10;99.90
11087;DHT22;5597;47.588;9.642;2023-07-02T07:30:25;18.10;99.90
11087;DHT22;5597;47.588;9.642;2023-07-02T07:32:52;18.00;99.90
11087;DHT22;5597;47.588;9.642;2023-07-02T07:35:19;18.00;99.90
11087;DHT22;5597;47.588;9.642;2023-07-02T07:37:45;18.00;99.90
11087;DHT22;5597;47.588;9.642;2023-07-02T07:40:11;18.00;99.90
11087;DHT22;5597;47.588;9.642;2023-07-02T07:42:37;18.00;99.90
11087;DHT22;5597;47.588;9.642;2023-07-02T07:45:03;18.00;99.90
11087;DHT22;5597;47.588;9.642;2023-07-02T07:47:29;17.90;99.90
11087;DHT22;5597;47.588;9.642;2023-07-02T07:49:55;17.90;99.90
11087;DHT22;5597;47.588;9.642;2023-07-02T07:52:21;17.90;99.90
11087;DHT22;5597;47.588;9.642;2023-07-02T07:54:47;17.90;99.90
11087;DHT22;5597;47.588;9.642;2023-07-02T07:57:12;17.90;99.90
11087;DHT22;5597;47.588;9.642;2023-07-02T07:59:38;17.90;99.90
11087;DHT22;5597;47.588;9.642;2023-07-02T08:02:04;17.90;99.90
11087;DHT22;5597;47.588;9.642;2023-07-02T08:04:29;17.90;99.90
11087;DHT22;5597;47.588;9.642;2023-07-02T08:06:55;17.90;99.90
11087;DHT22;5597;47.588;9.642;2023-07-02T08:09:23;18.00;99.90
11087;DHT22;5597;47.588;9.642;2023-07-02T08:11:48;17.90;99.90
11087;DHT22;5597;47.588;9.642;2023-07-02T08:14:14;18.00;99.90
11087;DHT22;5597;47.588;9.642;2023-07-02T08:16:40;18.00;99.90
11087;DHT22;5597;47.588;9.642;2023-07-02T08:19:06;18.00;99.90
11087;DHT22;5597;47.588;9.642;2023-07-02T08:21:31;18.00;99.90
11087;DHT22;5597;47.588;9.642;2023-07-02T08:23:57;18.10;99.90
11087;DHT22;5597;47.588;9.642;2023-07-02T08:26:23;18.10;99.90
11087;DHT22;5597;47.588;9.642;2023-07-02T08:28:48;18.00;99.90
11087;DHT22;5597;47.588;9.642;2023-07-02T08:31:14;18.00;99.90
11087;DHT22;5597;47.588;9.642;2023-07-02T08:33:40;18.00;99.90
11087;DHT22;5597;47.588;9.642;2023-07-02T08:36:06;18.10;99.90
11087;DHT22;5597;47.588;9.642;2023-07-02T08:38:31;18.10;99.90
11087;DHT22;5597;47.588;9.642;2023-07-02T08:40:57;18.10;99.90
11087;DHT22;5597;47.588;9.642;2023-07-02T08:43:25;18.10;99.90
11087;DHT22;5597;47.588;9.642;2023-07-02T08:45:51;18.10;99.90
11087;DHT22;5597;47.588;9.642;2023-07-02T08:48:18;18.10;99.90
11087;DHT22;5597;47.588;9.642;2023-07-02T08:50:48;18.10;99.90
11087;DHT22;5597;47.588;9.642;2023-07-02T08:53:14;18.10;99.90
11087;DHT22;5597;47.588;9.642;2023-07-02T08:55:40;18.00;99.90
11087;DHT22;5597;47.588;9.642;2023-07-02T08:58:06;18.10;99.90
11087;DHT22;5597;47.588;9.642;2023-07-02T09:00:31;18.10;99.90
11087;DHT22;5597;47.588;9.642;2023-07-02T09:03:22;18.10;99.90
11087;DHT22;5597;47.588;9.642;2023-07-02T09:05:51;18.20;99.90
11087;DHT22;5597;47.588;9.642;2023-07-02T09:08:28;18.20;99.90
11087;DHT22;5597;47.588;9.642;2023-07-02T09:10:54;18.30;99.90
11087;DHT22;5597;47.588;9.642;2023-07-02T09:13:20;18.20;99.90
11087;DHT22;5597;47.588;9.642;2023-07-02T09:15:46;18.30;99.90
11087;DHT22;5597;47.588;9.642;2023-07-02T09:18:22;18.30;99.90
11087;DHT22;5597;47.588;9.642;2023-07-02T09:20:54;18.30;99.90
11087;DHT22;5597;47.588;9.642;2023-07-02T09:23:20;18.30;99.90
11087;DHT22;5597;47.588;9.642;2023-07-02T09:25:46;18.30;99.90
11087;DHT22;5597;47.588;9.642;2023-07-02T09:28:22;18.40;99.90
11087;DHT22;5597;47.588;9.642;2023-07-02T09:30:55;18.40;99.90
11087;DHT22;5597;47.588;9.642;2023-07-02T09:33:22;18.50;99.90
11087;DHT22;5597;47.588;9.642;2023-07-02T09:35:48;18.60;99.90
11087;DHT22;5597;47.588;9.642;2023-07-02T09:38:15;18.70;99.90
11087;DHT22;5597;47.588;9.642;2023-07-02T09:40:51;18.80;99.90
11087;DHT22;5597;47.588;9.642;2023-07-02T09:43:18;18.80;99.90
11087;DHT22;5597;47.588;9.642;2023-07-02T09:45:46;18.90;99.90
11087;DHT22;5597;47.588;9.642;2023-07-02T09:48:13;18.90;99.90
11087;DHT22;5597;47.588;9.642;2023-07-02T09:50:44;18.90;99.90
11087;DHT22;5597;47.588;9.642;2023-07-02T09:53:11;18.90;99.90
11087;DHT22;5597;47.588;9.642;2023-07-02T09:55:37;18.90;99.90
11087;DHT22;5597;47.588;9.642;2023-07-02T09:58:04;19.00;99.90
11087;DHT22;5597;47.588;9.642;2023-07-02T10:00:29;19.00;99.90
11087;DHT22;5597;47.588;9.642;2023-07-02T10:02:55;19.00;99.90
11087;DHT22;5597;47.588;9.642;2023-07-02T10:05:28;19.00;99.90
11087;DHT22;5597;47.588;9.642;2023-07-02T10:07:59;19.10;99.90
11087;DHT22;5597;47.588;9.642;2023-07-02T10:10:36;19.20;99.90
11087;DHT22;5597;47.588;9.642;2023-07-02T10:13:01;19.30;99.90
11087;DHT22;5597;47.588;9.642;2023-07-02T10:15:28;19.50;99.90
11087;DHT22;5597;47.588;9.642;2023-07-02T10:17:55;19.70;99.90
11087;DHT22;5597;47.588;9.642;2023-07-02T10:20:32;20.00;99.90
11087;DHT22;5597;47.588;9.642;2023-07-02T10:22:59;20.20;99.90
11087;DHT22;5597;47.588;9.642;2023-07-02T10:25:28;20.30;99.90
11087;DHT22;5597;47.588;9.642;2023-07-02T10:27:55;20.50;99.90
11087;DHT22;5597;47.588;9.642;2023-07-02T10:30:35;20.70;99.90
11087;DHT22;5597;47.588;9.642;2023-07-02T10:33:27;20.90;99.90
11087;DHT22;5597;47.588;9.642;2023-07-02T10:35:52;21.20;99.90
11087;DHT22;5597;47.588;9.642;2023-07-02T10:38:23;21.40;99.90
11087;DHT22;5597;47.588;9.642;2023-07-02T10:40:59;21.50;99.90
11087;DHT22;5597;47.588;9.642;2023-07-02T10:43:29;21.60;99.90
11087;DHT22;5597;47.588;9.642;2023-07-02T10:45:56;21.60;99.90
11087;DHT22;5597;47.588;9.642;2023-07-02T10:48:21;21.60;99.90
11087;DHT22;5597;47.588;9.642;2023-07-02T10:50:47;21.70;99.90
11087;DHT22;5597;47.588;9.642;2023-07-02T10:53:17;21.80;99.90
11087;DHT22;5597;47.588;9.642;2023-07-02T10:55:44;22.00;99.90
11087;DHT22;5597;47.588;9.642;2023-07-02T10:58:11;22.10;99.90
11087;DHT22;5597;47.588;9.642;2023-07-02T11:00:50;22.30;99.90
11087;DHT22;5597;47.588;9.642;2023-07-02T11:03:24;22.30;99.90
11087;DHT22;5597;47.588;9.642;2023-07-02T11:05:51;22.40;99.90
11087;DHT22;5597;47.588;9.642;2023-07-02T11:08:17;22.50;99.90
11087;DHT22;5597;47.588;9.642;2023-07-02T11:10:43;22.70;99.90
11087;DHT22;5597;47.588;9.642;2023-07-02T11:13:13;22.80;99.90
11087;DHT22;5597;47.588;9.642;2023-07-02T11:15:38;23.20;99.90
11087;DHT22;5597;47.588;9.642;2023-07-02T11:18:11;23.70;99.90
11087;DHT22;5597;47.588;9.642;2023-07-02T11:20:36;24.10;99.90
11087;DHT22;5597;47.588;9.642;2023-07-02T11:23:02;24.40;99.90
11087;DHT22;5597;47.588;9.642;2023-07-02T11:25:28;24.60;99.90
11087;DHT22;5597;47.588;9.642;2023-07-02T11:28:03;25.00;99.90
11087;DHT22;5597;47.588;9.642;2023-07-02T11:30:29;25.30;99.90
11087;DHT22;5597;47.588;9.642;2023-07-02T11:32:55;25.10;99.90
11087;DHT22;5597;47.588;9.642;2023-07-02T11:35:22;25.00;99.90
11087;DHT22;5597;47.588;9.642;2023-07-02T11:37:58;24.80;99.90
11087;DHT22;5597;47.588;9.642;2023-07-02T11:40:24;24.80;99.90
11087;DHT22;5597;47.588;9.642;2023-07-02T11:42:50;24.80;99.90
11087;DHT22;5597;47.588;9.642;2023-07-02T11:45:15;24.80;99.90
11087;DHT22;5597;47.588;9.642;2023-07-02T11:47:41;24.80;99.90
11087;DHT22;5597;47.588;9.642;2023-07-02T11:50:07;24.70;99.90
11087;DHT22;5597;47.588;9.642;2023-07-02T11:52:32;24.80;99.90
11087;DHT22;5597;47.588;9.642;2023-07-02T11:54:58;25.10;99.90
11087;DHT22;5597;47.588;9.642;2023-07-02T11:57:24;25.50;99.90
11087;DHT22;5597;47.588;9.642;2023-07-02T11:59:50;25.70;99.90
11087;DHT22;5597;47.588;9.642;2023-07-02T12:02:15;25.70;99.90
11087;DHT22;5597;47.588;9.642;2023-07-02T12:04:41;25.90;99.90
11087;DHT22;5597;47.588;9.642;2023-07-02T12:07:07;26.20;99.90
11087;DHT22;5597;47.588;9.642;2023-07-02T12:09:33;26.50;99.90
11087;DHT22;5597;47.588;9.642;2023-07-02T12:11:58;26.90;99.90
11087;DHT22;5597;47.588;9.642;2023-07-02T12:14:24;27.20;99.90
11087;DHT22;5597;47.588;9.642;2023-07-02T12:16:49;27.60;99.90
11087;DHT22;5597;47.588;9.642;2023-07-02T12:19:15;27.80;99.90
11087;DHT22;5597;47.588;9.642;2023-07-02T12:21:40;27.90;99.90
11087;DHT22;5597;47.588;9.642;2023-07-02T12:24:06;28.10;99.90
11087;DHT22;5597;47.588;9.642;2023-07-02T12:26:35;28.40;99.90
11087;DHT22;5597;47.588;9.642;2023-07-02T12:29:01;28.10;99.90
11087;DHT22;5597;47.588;9.642;2023-07-02T12:31:26;27.90;99.90
11087;DHT22;5597;47.588;9.642;2023-07-02T12:33:52;28.00;99.90
11087;DHT22;5597;47.588;9.642;2023-07-02T12:36:17;28.10;99.90
11087;DHT22;5597;47.588;9.642;2023-07-02T12:38:43;28.10;99.90
11087;DHT22;5597;47.588;9.642;2023-07-02T12:41:08;28.20;99.90
11087;DHT22;5597;47.588;9.642;2023-07-02T12:43:34;28.30;99.90
11087;DHT22;5597;47.588;9.642;2023-07-02T12:46:00;28.60;99.90
11087;DHT22;5597;47.588;9.642;2023-07-02T12:48:25;28.70;99.90
11087;DHT22;5597;47.588;9.642;2023-07-02T12:50:59;28.90;99.90
11087;DHT22;5597;47.588;9.642;2023-07-02T12:53:25;29.00;99.90
11087;DHT22;5597;47.588;9.642;2023-07-02T12:55:52;28.90;99.90
11087;DHT22;5597;47.588;9.642;2023-07-02T12:58:17;28.90;99.90
11087;DHT22;5597;47.588;9.642;2023-07-02T13:00:43;28.90;99.90
11087;DHT22;5597;47.588;9.642;2023-07-02T13:03:12;28.70;99.90
11087;DHT22;5597;47.588;9.642;2023-07-02T13:05:38;28.40;99.90
11087;DHT22;5597;47.588;9.642;2023-07-02T13:08:04;28.30;99.90
11087;DHT22;5597;47.588;9.642;2023-07-02T13:10:30;28.10;99.90
11087;DHT22;5597;47.588;9.642;2023-07-02T13:12:56;27.70;99.90
11087;DHT22;5597;47.588;9.642;2023-07-02T13:15:22;27.50;99.90
11087;DHT22;5597;47.588;9.642;2023-07-02T13:17:48;27.50;99.90
11087;DHT22;5597;47.588;9.642;2023-07-02T13:20:13;27.50;99.90
11087;DHT22;5597;47.588;9.642;2023-07-02T13:22:39;27.50;99.90
11087;DHT22;5597;47.588;9.642;2023-07-02T13:25:06;27.50;99.90
11087;DHT22;5597;47.588;9.642;2023-07-02T13:27:31;27.50;99.90
11087;DHT22;5597;47.588;9.642;2023-07-02T13:29:57;27.50;99.90
11087;DHT22;5597;47.588;9.642;2023-07-02T13:32:23;27.70;99.90
11087;DHT22;5597;47.588;9.642;2023-07-02T13:34:49;27.70;99.90
11087;DHT22;5597;47.588;9.642;2023-07-02T13:37:14;27.80;99.90
11087;DHT22;5597;47.588;9.642;2023-07-02T13:39:46;27.70;99.90
11087;DHT22;5597;47.588;9.642;2023-07-02T13:42:12;27.60;99.90
11087;DHT22;5597;47.588;9.642;2023-07-02T13:44:37;27.40;99.90
11087;DHT22;5597;47.588;9.642;2023-07-02T13:47:03;27.40;99.90
11087;DHT22;5597;47.588;9.642;2023-07-02T13:49:29;27.30;99.90
11087;DHT22;5597;47.588;9.642;2023-07-02T13:51:55;27.20;99.90
11087;DHT22;5597;47.588;9.642;2023-07-02T13:54:20;27.00;99.90
11087;DHT22;5597;47.588;9.642;2023-07-02T13:56:46;27.10;99.90
11087;DHT22;5597;47.588;9.642;2023-07-02T13:59:13;27.30;99.90
11087;DHT22;5597;47.588;9.642;2023-07-02T14:01:39;27.50;99.90
11087;DHT22;5597;47.588;9.642;2023-07-02T14:04:04;27.70;99.90
11087;DHT22;5597;47.588;9.642;2023-07-02T14:06:30;27.90;99.90
11087;DHT22;5597;47.588;9.642;2023-07-02T14:08:55;27.90;99.90
11087;DHT22;5597;47.588;9.642;2023-07-02T14:11:22;27.90;99.90
11087;DHT22;5597;47.588;9.642;2023-07-02T14:13:48;27.80;99.90
11087;DHT22;5597;47.588;9.642;2023-07-02T14:16:14;27.60;99.90
11087;DHT22;5597;47.588;9.642;2023-07-02T14:18:40;27.60;99.90
11087;DHT22;5597;47.588;9.642;2023-07-02T14:21:06;27.70;99.90
11087;DHT22;5597;47.588;9.642;2023-07-02T14:23:32;28.00;99.90
11087;DHT22;5597;47.588;9.642;2023-07-02T14:25:57;28.40;99.90
11087;DHT22;5597;47.588;9.642;2023-07-02T14:28:23;28.70;99.90
11087;DHT22;5597;47.588;9.642;2023-07-02T14:30:56;29.00;99.90
11087;DHT22;5597;47.588;9.642;2023-07-02T14:33:22;29.30;99.90
11087;DHT22;5597;47.588;9.642;2023-07-02T14:35:47;29.50;99.90
11087;DHT22;5597;47.588;9.642;2023-07-02T14:38:13;29.70;99.90
11087;DHT22;5597;47.588;9.642;2023-07-02T14:40:38;29.90;99.70
11087;DHT22;5597;47.588;9.642;2023-07-02T14:43:04;30.10;99.90
11087;DHT22;5597;47.588;9.642;2023-07-02T14:45:30;30.30;96.60
11087;DHT22;5597;47.588;9.642;2023-07-02T14:47:56;30.10;96.20
11087;DHT22;5597;47.588;9.642;2023-07-02T14:50:28;29.90;95.10
11087;DHT22;5597;47.588;9.642;2023-07-02T14:52:53;29.70;96.00
11087;DHT22;5597;47.588;9.642;2023-07-02T14:55:19;29.70;96.30
11087;DHT22;5597;47.588;9.642;2023-07-02T14:57:44;29.70;97.40
11087;DHT22;5597;47.588;9.642;2023-07-02T15:00:10;29.90;95.90
11087;DHT22;5597;47.588;9.642;2023-07-02T15:02:36;29.60;95.80
11087;DHT22;5597;47.588;9.642;2023-07-02T15:05:02;29.50;97.40
11087;DHT22;5597;47.588;9.642;2023-07-02T15:07:28;29.70;97.10
11087;DHT22;5597;47.588;9.642;2023-07-02T15:09:54;29.60;95.10
11087;DHT22;5597;47.588;9.642;2023-07-02T15:12:19;29.70;97.00
11087;DHT22;5597;47.588;9.642;2023-07-02T15:14:45;30.00;97.60
11087;DHT22;5597;47.588;9.642;2023-07-02T15:17:10;30.30;97.90
11087;DHT22;5597;47.588;9.642;2023-07-02T15:19:36;30.60;93.50
11087;DHT22;5597;47.588;9.642;2023-07-02T15:22:02;30.50;94.90
11087;DHT22;5597;47.588;9.642;2023-07-02T15:24:28;30.20;93.50
11087;DHT22;5597;47.588;9.642;2023-07-02T15:26:54;30.20;93.60
11087;DHT22;5597;47.588;9.642;2023-07-02T15:29:19;30.00;92.90
11087;DHT22;5597;47.588;9.642;2023-07-02T15:31:45;29.90;95.70
11087;DHT22;5597;47.588;9.642;2023-07-02T15:34:12;30.00;97.10
11087;DHT22;5597;47.588;9.642;2023-07-02T15:36:41;30.20;96.30
11087;DHT22;5597;47.588;9.642;2023-07-02T15:39:07;30.50;96.80
11087;DHT22;5597;47.588;9.642;2023-07-02T15:41:33;30.80;96.30